sensor_id;sensor_type;location;lat;lon;timestamp;temperature;humidity
20977;DHT22;10647;51.016;3.720;2023-02-26T00:02:03;4.50;99.90
20977;DHT22;10647;51.016;3.720;2023-02-26T00:04:30;4.50;99.90
20977;DHT22;10647;51.016;3.720;2023-02-26T00:06:58;4.40;99.90
20977;DHT22;10647;51.016;3.720;2023-02-26T00:09:26;4.40;99.90
20977;DHT22;10647;51.016;3.720;2023-02-26T00:11:53;4.40;99.90
20977;DHT22;10647;51.016;3.720;2023-02-26T00:14:21;4.40;99.90
20977;DHT22;10647;51.016;3.720;2023-02-26T00:19:26;4.40;99.90
20977;DHT22;10647;51.016;3.720;2023-02-26T00:21:53;4.40;99.90
20977;DHT22;10647;51.016;3.720;2023-02-26T00:24:24;4.40;99.90
20977;DHT22;10647;51.016;3.720;2023-02-26T00:26:53;4.40;99.90
20977;DHT22;10647;51.016;3.720;2023-02-26T00:29:23;4.30;99.90
20977;DHT22;10647;51.016;3.720;2023-02-26T00:31:50;4.30;99.90
20977;DHT22;10647;51.016;3.720;2023-02-26T00:34:20;4.30;99.90
20977;DHT22;10647;51.016;3.720;2023-02-26T00:37:08;4.30;99.90
20977;DHT22;10647;51.016;3.720;2023-02-26T00:42:44;4.20;99.90
20977;DHT22;10647;51.016;3.720;2023-02-26T00:45:13;4.20;99.90
20977;DHT22;10647;51.016;3.720;2023-02-26T00:48:14;4.20;99.90
20977;DHT22;10647;51.016;3.720;2023-02-26T00:53:57;4.10;99.90
20977;DHT22;10647;51.016;3.720;2023-02-26T00:56:28;4.00;99.90
20977;DHT22;10647;51.016;3.720;2023-02-26T00:58:56;4.00;99.90
20977;DHT22;10647;51.016;3.720;2023-02-26T01:01:23;3.90;99.90
20977;DHT22;10647;51.016;3.720;2023-02-26T01:03:51;3.90;99.90
20977;DHT22;10647;51.016;3.720;2023-02-26T01:06:21;3.90;99.90
20977;DHT22;10647;51.016;3.720;2023-02-26T01:09:04;3.90;99.90
20977;DHT22;10647;51.016;3.720;2023-02-26T01:14:22;3.90;99.90
20977;DHT22;10647;51.016;3.720;2023-02-26T01:20:03;3.90;99.90
20977;DHT22;10647;51.016;3.720;2023-02-26T01:22:43;3.90;99.90
20977;DHT22;10647;51.016;3.720;2023-02-26T01:28:05;4.00;99.90
20977;DHT22;10647;51.016;3.720;2023-02-26T01:30:33;4.10;99.90
20977;DHT22;10647;51.016;3.720;2023-02-26T01:36:07;4.50;99.90
20977;DHT22;10647;51.016;3.720;2023-02-26T01:41:35;4.70;99.90
20977;DHT22;10647;51.016;3.720;2023-02-26T01:44:29;4.80;99.90
20977;DHT22;10647;51.016;3.720;2023-02-26T01:47:38;4.80;99.90
20977;DHT22;10647;51.016;3.720;2023-02-26T01:50:25;4.90;99.90
20977;DHT22;10647;51.016;3.720;2023-02-26T01:53:18;5.00;99.90
20977;DHT22;10647;51.016;3.720;2023-02-26T02:01:22;5.10;99.90
20977;DHT22;10647;51.016;3.720;2023-02-26T02:03:50;5.20;99.90
20977;DHT22;10647;51.016;3.720;2023-02-26T02:06:20;5.20;99.90
20977;DHT22;10647;51.016;3.720;2023-02-26T02:08:55;5.30;99.90
20977;DHT22;10647;51.016;3.720;2023-02-26T02:11:23;5.30;99.90
20977;DHT22;10647;51.016;3.720;2023-02-26T02:13:58;5.30;99.90
20977;DHT22;10647;51.016;3.720;2023-02-26T02:16:47;5.30;99.90
20977;DHT22;10647;51.016;3.720;2023-02-26T02:25:49;5.40;99.90
20977;DHT22;10647;51.016;3.720;2023-02-26T02:28:58;5.40;99.90
20977;DHT22;10647;51.016;3.720;2023-02-26T02:31:34;5.40;99.90
20977;DHT22;10647;51.016;3.720;2023-02-26T02:34:08;5.50;99.90
20977;DHT22;10647;51.016;3.720;2023-02-26T02:36:48;5.50;99.90
20977;DHT22;10647;51.016;3.720;2023-02-26T02:42:16;5.50;99.90
20977;DHT22;10647;51.016;3.720;2023-02-26T02:44:40;5.60;99.90
20977;DHT22;10647;51.016;3.720;2023-02-26T02:47:10;5.60;99.90
20977;DHT22;10647;51.016;3.720;2023-02-26T02:49:50;5.60;99.90
20977;DHT22;10647;51.016;3.720;2023-02-26T02:55:19;5.70;99.90
20977;DHT22;10647;51.016;3.720;2023-02-26T02:57:54;5.70;99.90
20977;DHT22;10647;51.016;3.720;2023-02-26T03:00:42;5.80;99.90
20977;DHT22;10647;51.016;3.720;2023-02-26T03:05:59;5.80;99.90
20977;DHT22;10647;51.016;3.720;2023-02-26T03:08:29;5.80;99.90
20977;DHT22;10647;51.016;3.720;2023-02-26T03:11:16;5.80;99.90
20977;DHT22;10647;51.016;3.720;2023-02-26T03:13:44;5.80;99.90
20977;DHT22;10647;51.016;3.720;2023-02-26T03:19:50;5.80;99.90
20977;DHT22;10647;51.016;3.720;2023-02-26T03:31:01;5.60;99.90
20977;DHT22;10647;51.016;3.720;2023-02-26T03:36:37;5.40;99.90
20977;DHT22;10647;51.016;3.720;2023-02-26T03:39:32;5.30;99.90
20977;DHT22;10647;51.016;3.720;2023-02-26T04:22:55;4.10;99.90
20977;DHT22;10647;51.016;3.720;2023-02-26T04:25:23;4.00;99.90
20977;DHT22;10647;51.016;3.720;2023-02-26T04:27:52;4.00;99.90
20977;DHT22;10647;51.016;3.720;2023-02-26T04:30:25;4.00;99.90
20977;DHT22;10647;51.016;3.720;2023-02-26T04:32:54;4.00;99.90
20977;DHT22;10647;51.016;3.720;2023-02-26T04:35:25;4.10;99.90
20977;DHT22;10647;51.016;3.720;2023-02-26T04:37:53;4.10;99.90
20977;DHT22;10647;51.016;3.720;2023-02-26T04:40:21;4.10;99.90
20977;DHT22;10647;51.016;3.720;2023-02-26T04:42:53;4.10;99.90
20977;DHT22;10647;51.016;3.720;2023-02-26T04:45:20;4.10;99.90
20977;DHT22;10647;51.016;3.720;2023-02-26T04:47:48;4.10;99.90
20977;DHT22;10647;51.016;3.720;2023-02-26T04:50:21;4.00;99.90
20977;DHT22;10647;51.016;3.720;2023-02-26T04:52:48;4.00;99.90
20977;DHT22;10647;51.016;3.720;2023-02-26T04:55:17;4.00;99.90
20977;DHT22;10647;51.016;3.720;2023-02-26T04:57:45;4.00;99.90
20977;DHT22;10647;51.016;3.720;2023-02-26T05:00:13;4.00;99.90
20977;DHT22;10647;51.016;3.720;2023-02-26T05:02:42;3.90;99.90
20977;DHT22;10647;51.016;3.720;2023-02-26T05:05:11;3.90;99.90
20977;DHT22;10647;51.016;3.720;2023-02-26T05:07:58;3.90;99.90
20977;DHT22;10647;51.016;3.720;2023-02-26T05:10:26;3.90;99.90
20977;DHT22;10647;51.016;3.720;2023-02-26T05:12:54;3.80;99.90
20977;DHT22;10647;51.016;3.720;2023-02-26T05:15:22;3.80;99.90
20977;DHT22;10647;51.016;3.720;2023-02-26T05:17:49;3.80;99.90
20977;DHT22;10647;51.016;3.720;2023-02-26T05:20:18;3.80;99.90
20977;DHT22;10647;51.016;3.720;2023-02-26T05:22:45;3.80;99.90
20977;DHT22;10647;51.016;3.720;2023-02-26T05:25:14;3.70;99.90
20977;DHT22;10647;51.016;3.720;2023-02-26T05:27:42;3.70;99.90
20977;DHT22;10647;51.016;3.720;2023-02-26T05:32:58;3.70;99.90
20977;DHT22;10647;51.016;3.720;2023-02-26T05:35:25;3.70;99.90
20977;DHT22;10647;51.016;3.720;2023-02-26T05:37:53;3.60;99.90
20977;DHT22;10647;51.016;3.720;2023-02-26T05:40:23;3.60;99.90
20977;DHT22;10647;51.016;3.720;2023-02-26T05:42:53;3.60;99.90
20977;DHT22;10647;51.016;3.720;2023-02-26T05:45:20;3.50;99.90
20977;DHT22;10647;51.016;3.720;2023-02-26T05:47:48;3.50;99.90
20977;DHT22;10647;51.016;3.720;2023-02-26T05:50:17;3.50;99.90
20977;DHT22;10647;51.016;3.720;2023-02-26T05:52:45;3.50;99.90
20977;DHT22;10647;51.016;3.720;2023-02-26T05:55:12;3.50;99.90
20977;DHT22;10647;51.016;3.720;2023-02-26T05:57:40;3.40;99.90
20977;DHT22;10647;51.016;3.720;2023-02-26T06:00:08;3.40;99.90
20977;DHT22;10647;51.016;3.720;2023-02-26T06:02:42;3.40;99.90
20977;DHT22;10647;51.016;3.720;2023-02-26T06:05:09;3.40;99.90
20977;DHT22;10647;51.016;3.720;2023-02-26T06:07:40;3.40;99.90
20977;DHT22;10647;51.016;3.720;2023-02-26T06:10:08;3.30;99.90
20977;DHT22;10647;51.016;3.720;2023-02-26T06:12:36;3.30;99.90
20977;DHT22;10647;51.016;3.720;2023-02-26T06:15:05;3.30;99.90
20977;DHT22;10647;51.016;3.720;2023-02-26T06:17:33;3.30;99.90
20977;DHT22;10647;51.016;3.720;2023-02-26T06:20:02;3.30;99.90
20977;DHT22;10647;51.016;3.720;2023-02-26T06:22:49;3.30;99.90
20977;DHT22;10647;51.016;3.720;2023-02-26T06:25:20;3.30;99.90
20977;DHT22;10647;51.016;3.720;2023-02-26T06:27:49;3.20;99.90
20977;DHT22;10647;51.016;3.720;2023-02-26T06:30:17;3.20;99.90
20977;DHT22;10647;51.016;3.720;2023-02-26T06:32:45;3.20;99.90
20977;DHT22;10647;51.016;3.720;2023-02-26T06:35:12;3.20;99.90
20977;DHT22;10647;51.016;3.720;2023-02-26T06:37:40;3.20;99.90
20977;DHT22;10647;51.016;3.720;2023-02-26T06:40:08;3.20;99.90
20977;DHT22;10647;51.016;3.720;2023-02-26T06:42:37;3.20;99.90
20977;DHT22;10647;51.016;3.720;2023-02-26T06:45:05;3.20;99.90
20977;DHT22;10647;51.016;3.720;2023-02-26T06:47:32;3.20;99.90
20977;DHT22;10647;51.016;3.720;2023-02-26T06:50:00;3.20;99.90
20977;DHT22;10647;51.016;3.720;2023-02-26T06:52:35;3.20;99.90
20977;DHT22;10647;51.016;3.720;2023-02-26T06:55:03;3.20;99.90
20977;DHT22;10647;51.016;3.720;2023-02-26T06:57:32;3.20;99.90
20977;DHT22;10647;51.016;3.720;2023-02-26T06:59:59;3.20;99.90
20977;DHT22;10647;51.016;3.720;2023-02-26T07:02:27;3.20;99.90
20977;DHT22;10647;51.016;3.720;2023-02-26T07:04:55;3.30;99.90
20977;DHT22;10647;51.016;3.720;2023-02-26T07:07:22;3.30;99.90
20977;DHT22;10647;51.016;3.720;2023-02-26T07:09:50;3.30;99.90
20977;DHT22;10647;51.016;3.720;2023-02-26T07:12:17;3.40;99.90
20977;DHT22;10647;51.016;3.720;2023-02-26T07:14:46;3.40;99.90
20977;DHT22;10647;51.016;3.720;2023-02-26T07:17:13;3.40;99.90
20977;DHT22;10647;51.016;3.720;2023-02-26T07:19:42;3.50;99.90
20977;DHT22;10647;51.016;3.720;2023-02-26T07:22:10;3.50;99.90
20977;DHT22;10647;51.016;3.720;2023-02-26T07:24:37;3.50;99.90
20977;DHT22;10647;51.016;3.720;2023-02-26T07:27:05;3.60;99.90
20977;DHT22;10647;51.016;3.720;2023-02-26T07:29:52;3.60;99.90
20977;DHT22;10647;51.016;3.720;2023-02-26T07:32:39;3.70;99.90
20977;DHT22;10647;51.016;3.720;2023-02-26T07:35:12;3.70;99.90
20977;DHT22;10647;51.016;3.720;2023-02-26T07:37:43;3.70;99.90
20977;DHT22;10647;51.016;3.720;2023-02-26T07:40:12;3.80;99.90
20977;DHT22;10647;51.016;3.720;2023-02-26T07:42:40;3.80;99.90
20977;DHT22;10647;51.016;3.720;2023-02-26T07:45:08;3.80;99.90
20977;DHT22;10647;51.016;3.720;2023-02-26T07:47:36;3.90;99.90
20977;DHT22;10647;51.016;3.720;2023-02-26T07:50:05;4.00;99.90
20977;DHT22;10647;51.016;3.720;2023-02-26T07:52:33;4.00;99.90
20977;DHT22;10647;51.016;3.720;2023-02-26T07:55:01;4.10;99.90
20977;DHT22;10647;51.016;3.720;2023-02-26T07:57:35;4.10;99.90
20977;DHT22;10647;51.016;3.720;2023-02-26T08:00:03;4.20;99.90
20977;DHT22;10647;51.016;3.720;2023-02-26T08:02:33;4.30;99.90
20977;DHT22;10647;51.016;3.720;2023-02-26T08:05:04;4.30;99.90
20977;DHT22;10647;51.016;3.720;2023-02-26T08:07:33;4.40;99.90
20977;DHT22;10647;51.016;3.720;2023-02-26T08:10:04;4.40;99.90
20977;DHT22;10647;51.016;3.720;2023-02-26T08:12:38;4.50;99.90
20977;DHT22;10647;51.016;3.720;2023-02-26T08:15:06;4.50;99.90
20977;DHT22;10647;51.016;3.720;2023-02-26T08:17:41;4.60;99.90
20977;DHT22;10647;51.016;3.720;2023-02-26T08:20:11;4.60;99.90
20977;DHT22;10647;51.016;3.720;2023-02-26T08:22:43;4.70;99.90
20977;DHT22;10647;51.016;3.720;2023-02-26T08:25:13;4.80;99.90
20977;DHT22;10647;51.016;3.720;2023-02-26T08:27:43;4.80;99.90
20977;DHT22;10647;51.016;3.720;2023-02-26T08:30:12;4.90;99.90
20977;DHT22;10647;51.016;3.720;2023-02-26T08:32:39;4.90;99.90
20977;DHT22;10647;51.016;3.720;2023-02-26T08:35:08;5.00;99.90
20977;DHT22;10647;51.016;3.720;2023-02-26T08:37:36;5.00;99.90
20977;DHT22;10647;51.016;3.720;2023-02-26T08:40:06;5.00;99.90
20977;DHT22;10647;51.016;3.720;2023-02-26T08:42:40;5.10;99.90
20977;DHT22;10647;51.016;3.720;2023-02-26T08:45:08;5.20;99.90
20977;DHT22;10647;51.016;3.720;2023-02-26T08:47:38;5.20;99.90
20977;DHT22;10647;51.016;3.720;2023-02-26T08:52:47;5.30;99.90
20977;DHT22;10647;51.016;3.720;2023-02-26T08:55:15;5.40;99.90
20977;DHT22;10647;51.016;3.720;2023-02-26T08:57:42;5.40;99.90
20977;DHT22;10647;51.016;3.720;2023-02-26T09:00:10;5.50;99.90
20977;DHT22;10647;51.016;3.720;2023-02-26T09:02:38;5.50;99.90
20977;DHT22;10647;51.016;3.720;2023-02-26T09:05:05;5.50;99.90
20977;DHT22;10647;51.016;3.720;2023-02-26T09:07:39;5.60;99.90
20977;DHT22;10647;51.016;3.720;2023-02-26T09:10:08;5.60;99.90
20977;DHT22;10647;51.016;3.720;2023-02-26T09:12:38;5.60;99.90
20977;DHT22;10647;51.016;3.720;2023-02-26T09:15:07;5.70;99.90
20977;DHT22;10647;51.016;3.720;2023-02-26T09:20:23;5.80;99.90
20977;DHT22;10647;51.016;3.720;2023-02-26T09:23:21;5.90;99.90
20977;DHT22;10647;51.016;3.720;2023-02-26T09:25:57;5.90;99.90
20977;DHT22;10647;51.016;3.720;2023-02-26T09:28:52;5.90;99.90
20977;DHT22;10647;51.016;3.720;2023-02-26T09:31:31;5.90;99.90
20977;DHT22;10647;51.016;3.720;2023-02-26T09:34:02;5.90;99.90
20977;DHT22;10647;51.016;3.720;2023-02-26T09:36:49;5.90;99.90
20977;DHT22;10647;51.016;3.720;2023-02-26T09:39:17;6.00;99.90
20977;DHT22;10647;51.016;3.720;2023-02-26T09:41:50;6.10;99.90
20977;DHT22;10647;51.016;3.720;2023-02-26T09:44:40;6.20;99.90
20977;DHT22;10647;51.016;3.720;2023-02-26T09:50:18;6.30;99.90
20977;DHT22;10647;51.016;3.720;2023-02-26T09:53:02;6.30;99.90
20977;DHT22;10647;51.016;3.720;2023-02-26T09:55:35;6.40;99.90
20977;DHT22;10647;51.016;3.720;2023-02-26T09:58:03;6.40;99.90
20977;DHT22;10647;51.016;3.720;2023-02-26T10:00:36;6.40;99.90
20977;DHT22;10647;51.016;3.720;2023-02-26T10:12:11;6.70;99.90
20977;DHT22;10647;51.016;3.720;2023-02-26T10:14:43;6.80;99.90
20977;DHT22;10647;51.016;3.720;2023-02-26T10:18:03;6.80;99.90
20977;DHT22;10647;51.016;3.720;2023-02-26T10:23:23;6.80;99.90
20977;DHT22;10647;51.016;3.720;2023-02-26T10:25:53;6.80;99.90
20977;DHT22;10647;51.016;3.720;2023-02-26T10:31:36;6.60;99.90
20977;DHT22;10647;51.016;3.720;2023-02-26T10:39:38;6.60;99.80
20977;DHT22;10647;51.016;3.720;2023-02-26T10:48:20;6.80;99.80
20977;DHT22;10647;51.016;3.720;2023-02-26T10:51:24;6.80;99.70
20977;DHT22;10647;51.016;3.720;2023-02-26T10:56:47;7.00;99.40
20977;DHT22;10647;51.016;3.720;2023-02-26T10:59:15;7.00;98.80
20977;DHT22;10647;51.016;3.720;2023-02-26T11:01:43;7.00;98.90
20977;DHT22;10647;51.016;3.720;2023-02-26T11:04:30;7.10;99.00
20977;DHT22;10647;51.016;3.720;2023-02-26T11:07:04;7.20;98.80
20977;DHT22;10647;51.016;3.720;2023-02-26T11:12:22;7.40;98.70
20977;DHT22;10647;51.016;3.720;2023-02-26T11:14:49;7.50;98.90
20977;DHT22;10647;51.016;3.720;2023-02-26T11:23:02;7.60;97.90
20977;DHT22;10647;51.016;3.720;2023-02-26T11:25:37;7.60;97.70
20977;DHT22;10647;51.016;3.720;2023-02-26T11:31:00;7.70;97.30
20977;DHT22;10647;51.016;3.720;2023-02-26T11:33:39;7.80;96.90
20977;DHT22;10647;51.016;3.720;2023-02-26T11:36:12;7.80;96.20
20977;DHT22;10647;51.016;3.720;2023-02-26T11:38:54;7.70;95.70
20977;DHT22;10647;51.016;3.720;2023-02-26T11:41:16;7.70;95.50
20977;DHT22;10647;51.016;3.720;2023-02-26T11:44:06;7.80;95.40
20977;DHT22;10647;51.016;3.720;2023-02-26T11:49:50;8.00;95.30
20977;DHT22;10647;51.016;3.720;2023-02-26T11:52:43;8.10;95.40
20977;DHT22;10647;51.016;3.720;2023-02-26T11:55:27;8.10;95.30
20977;DHT22;10647;51.016;3.720;2023-02-26T11:57:56;8.10;94.80
20977;DHT22;10647;51.016;3.720;2023-02-26T12:00:29;8.10;93.80
20977;DHT22;10647;51.016;3.720;2023-02-26T12:02:59;8.00;93.40
20977;DHT22;10647;51.016;3.720;2023-02-26T12:05:24;8.20;93.60
20977;DHT22;10647;51.016;3.720;2023-02-26T12:07:58;8.10;93.30
20977;DHT22;10647;51.016;3.720;2023-02-26T12:10:33;8.20;93.10
20977;DHT22;10647;51.016;3.720;2023-02-26T12:13:54;8.30;93.30
20977;DHT22;10647;51.016;3.720;2023-02-26T12:15:40;8.30;93.50
20977;DHT22;10647;51.016;3.720;2023-02-26T12:18:20;8.30;93.30
20977;DHT22;10647;51.016;3.720;2023-02-26T12:21:05;8.30;93.20
20977;DHT22;10647;51.016;3.720;2023-02-26T12:24:06;8.40;93.30
20977;DHT22;10647;51.016;3.720;2023-02-26T12:41:09;8.80;93.10
20977;DHT22;10647;51.016;3.720;2023-02-26T12:43:51;8.90;92.90
20977;DHT22;10647;51.016;3.720;2023-02-26T12:46:31;9.20;93.00
20977;DHT22;10647;51.016;3.720;2023-02-26T12:52:24;8.90;91.00
20977;DHT22;10647;51.016;3.720;2023-02-26T12:55:18;8.90;91.20
20977;DHT22;10647;51.016;3.720;2023-02-26T13:03:18;8.80;90.10
20977;DHT22;10647;51.016;3.720;2023-02-26T13:06:21;8.80;90.30
20977;DHT22;10647;51.016;3.720;2023-02-26T13:12:23;9.00;90.70
20977;DHT22;10647;51.016;3.720;2023-02-26T13:15:23;11.70;90.00
20977;DHT22;10647;51.016;3.720;2023-02-26T13:20:34;16.00;81.20
20977;DHT22;10647;51.016;3.720;2023-02-26T13:23:20;17.20;76.90
20977;DHT22;10647;51.016;3.720;2023-02-26T13:25:53;18.00;72.60
20977;DHT22;10647;51.016;3.720;2023-02-26T13:28:22;18.60;68.00
20977;DHT22;10647;51.016;3.720;2023-02-26T13:30:54;18.90;65.50
20977;DHT22;10647;51.016;3.720;2023-02-26T13:33:30;18.70;63.70
20977;DHT22;10647;51.016;3.720;2023-02-26T13:35:54;19.60;62.90
20977;DHT22;10647;51.016;3.720;2023-02-26T13:41:14;21.10;59.50
20977;DHT22;10647;51.016;3.720;2023-02-26T13:43:48;21.80;56.90
20977;DHT22;10647;51.016;3.720;2023-02-26T13:50:03;21.90;53.80
20977;DHT22;10647;51.016;3.720;2023-02-26T13:52:27;22.40;53.40
20977;DHT22;10647;51.016;3.720;2023-02-26T13:54:56;22.40;51.20
20977;DHT22;10647;51.016;3.720;2023-02-26T14:02:50;22.30;50.50
20977;DHT22;10647;51.016;3.720;2023-02-26T14:08:24;22.80;49.00
20977;DHT22;10647;51.016;3.720;2023-02-26T14:10:56;21.40;49.90
20977;DHT22;10647;51.016;3.720;2023-02-26T14:13:35;21.70;49.80
20977;DHT22;10647;51.016;3.720;2023-02-26T14:19:13;19.60;50.60
20977;DHT22;10647;51.016;3.720;2023-02-26T14:21:53;20.50;51.00
20977;DHT22;10647;51.016;3.720;2023-02-26T14:24:29;21.40;50.70
20977;DHT22;10647;51.016;3.720;2023-02-26T14:27:31;22.30;50.40
20977;DHT22;10647;51.016;3.720;2023-02-26T14:32:48;21.50;47.60
20977;DHT22;10647;51.016;3.720;2023-02-26T14:35:19;21.90;48.90
20977;DHT22;10647;51.016;3.720;2023-02-26T14:37:56;21.70;47.90
20977;DHT22;10647;51.016;3.720;2023-02-26T14:40:24;21.50;48.20
20977;DHT22;10647;51.016;3.720;2023-02-26T14:42:57;21.90;47.90
20977;DHT22;10647;51.016;3.720;2023-02-26T14:45:37;22.00;46.80
20977;DHT22;10647;51.016;3.720;2023-02-26T14:48:07;22.10;46.70
20977;DHT22;10647;51.016;3.720;2023-02-26T14:50:52;22.30;46.70
20977;DHT22;10647;51.016;3.720;2023-02-26T14:59:00;22.80;46.60
20977;DHT22;10647;51.016;3.720;2023-02-26T15:01:43;23.00;46.10
20977;DHT22;10647;51.016;3.720;2023-02-26T15:07:10;21.60;46.80
20977;DHT22;10647;51.016;3.720;2023-02-26T15:12:48;19.60;48.30
20977;DHT22;10647;51.016;3.720;2023-02-26T15:15:22;19.20;49.60
20977;DHT22;10647;51.016;3.720;2023-02-26T15:18:06;19.30;49.60
20977;DHT22;10647;51.016;3.720;2023-02-26T15:20:35;19.60;49.70
20977;DHT22;10647;51.016;3.720;2023-02-26T15:23:08;19.70;49.50
20977;DHT22;10647;51.016;3.720;2023-02-26T15:25:35;19.70;49.30
20977;DHT22;10647;51.016;3.720;2023-02-26T15:28:04;19.10;48.70
20977;DHT22;10647;51.016;3.720;2023-02-26T15:30:33;18.70;49.30
20977;DHT22;10647;51.016;3.720;2023-02-26T15:33:03;18.20;49.90
20977;DHT22;10647;51.016;3.720;2023-02-26T15:35:32;17.70;50.40
20977;DHT22;10647;51.016;3.720;2023-02-26T15:38:01;17.50;51.20
20977;DHT22;10647;51.016;3.720;2023-02-26T15:40:36;17.00;51.60
20977;DHT22;10647;51.016;3.720;2023-02-26T15:43:05;16.60;52.30
20977;DHT22;10647;51.016;3.720;2023-02-26T15:45:39;16.10;53.00
20977;DHT22;10647;51.016;3.720;2023-02-26T15:48:13;15.70;54.20
20977;DHT22;10647;51.016;3.720;2023-02-26T15:50:44;15.00;55.40
20977;DHT22;10647;51.016;3.720;2023-02-26T15:53:17;14.20;56.70
20977;DHT22;10647;51.016;3.720;2023-02-26T15:55:52;13.60;58.50
20977;DHT22;10647;51.016;3.720;2023-02-26T15:58:40;13.10;58.90
20977;DHT22;10647;51.016;3.720;2023-02-26T16:01:22;12.70;60.00
20977;DHT22;10647;51.016;3.720;2023-02-26T16:04:15;12.20;60.30
20977;DHT22;10647;51.016;3.720;2023-02-26T16:06:45;11.80;61.60
20977;DHT22;10647;51.016;3.720;2023-02-26T16:09:28;11.90;62.50
20977;DHT22;10647;51.016;3.720;2023-02-26T16:11:58;12.10;62.70
20977;DHT22;10647;51.016;3.720;2023-02-26T16:14:32;12.10;62.90
20977;DHT22;10647;51.016;3.720;2023-02-26T16:17:27;12.00;63.60
20977;DHT22;10647;51.016;3.720;2023-02-26T16:19:57;11.80;63.40
20977;DHT22;10647;51.016;3.720;2023-02-26T16:22:32;11.60;64.10
20977;DHT22;10647;51.016;3.720;2023-02-26T16:25:07;11.60;64.60
20977;DHT22;10647;51.016;3.720;2023-02-26T16:27:36;11.70;64.80
20977;DHT22;10647;51.016;3.720;2023-02-26T16:30:04;11.60;64.80
20977;DHT22;10647;51.016;3.720;2023-02-26T16:32:33;11.60;65.10
20977;DHT22;10647;51.016;3.720;2023-02-26T16:35:10;11.50;65.30
20977;DHT22;10647;51.016;3.720;2023-02-26T16:37:43;11.10;65.70
20977;DHT22;10647;51.016;3.720;2023-02-26T16:46:45;10.20;68.00
20977;DHT22;10647;51.016;3.720;2023-02-26T16:49:09;9.90;68.80
20977;DHT22;10647;51.016;3.720;2023-02-26T16:51:56;9.70;69.90
20977;DHT22;10647;51.016;3.720;2023-02-26T16:54:39;9.50;71.10
20977;DHT22;10647;51.016;3.720;2023-02-26T16:57:26;9.30;72.10
20977;DHT22;10647;51.016;3.720;2023-02-26T17:00:15;9.20;73.30
20977;DHT22;10647;51.016;3.720;2023-02-26T17:02:42;9.00;74.50
20977;DHT22;10647;51.016;3.720;2023-02-26T17:05:22;8.90;75.20
20977;DHT22;10647;51.016;3.720;2023-02-26T17:07:59;8.80;75.60
20977;DHT22;10647;51.016;3.720;2023-02-26T17:10:34;8.80;76.00
20977;DHT22;10647;51.016;3.720;2023-02-26T17:13:17;8.60;76.80
20977;DHT22;10647;51.016;3.720;2023-02-26T17:15:45;8.50;77.40
20977;DHT22;10647;51.016;3.720;2023-02-26T17:18:14;8.40;77.90
20977;DHT22;10647;51.016;3.720;2023-02-26T17:20:45;8.30;78.60
20977;DHT22;10647;51.016;3.720;2023-02-26T17:26:07;8.20;79.30
20977;DHT22;10647;51.016;3.720;2023-02-26T17:28:38;8.10;80.00
20977;DHT22;10647;51.016;3.720;2023-02-26T17:31:06;8.10;80.10
20977;DHT22;10647;51.016;3.720;2023-02-26T17:33:36;8.00;81.00
20977;DHT22;10647;51.016;3.720;2023-02-26T17:36:04;7.90;81.60
20977;DHT22;10647;51.016;3.720;2023-02-26T17:38:34;7.90;81.80
20977;DHT22;10647;51.016;3.720;2023-02-26T17:41:02;7.80;82.10
20977;DHT22;10647;51.016;3.720;2023-02-26T17:43:33;7.70;82.50
20977;DHT22;10647;51.016;3.720;2023-02-26T17:46:00;7.70;83.40
20977;DHT22;10647;51.016;3.720;2023-02-26T17:48:47;7.70;83.80
20977;DHT22;10647;51.016;3.720;2023-02-26T17:51:17;7.60;84.60
20977;DHT22;10647;51.016;3.720;2023-02-26T17:53:46;7.60;84.60
20977;DHT22;10647;51.016;3.720;2023-02-26T17:59:08;7.50;85.00
20977;DHT22;10647;51.016;3.720;2023-02-26T18:01:40;7.40;85.20
20977;DHT22;10647;51.016;3.720;2023-02-26T18:04:09;7.40;85.60
20977;DHT22;10647;51.016;3.720;2023-02-26T18:09:19;7.30;86.80
20977;DHT22;10647;51.016;3.720;2023-02-26T18:11:47;7.30;86.60
20977;DHT22;10647;51.016;3.720;2023-02-26T18:14:14;7.20;87.20
20977;DHT22;10647;51.016;3.720;2023-02-26T18:16:42;7.20;87.40
20977;DHT22;10647;51.016;3.720;2023-02-26T18:19:13;7.20;87.90
20977;DHT22;10647;51.016;3.720;2023-02-26T18:21:41;7.20;88.10
20977;DHT22;10647;51.016;3.720;2023-02-26T18:24:08;7.10;88.30
20977;DHT22;10647;51.016;3.720;2023-02-26T18:26:36;7.10;88.80
20977;DHT22;10647;51.016;3.720;2023-02-26T18:29:04;7.10;89.20
20977;DHT22;10647;51.016;3.720;2023-02-26T18:31:32;7.00;89.30
20977;DHT22;10647;51.016;3.720;2023-02-26T18:34:00;7.00;89.60
20977;DHT22;10647;51.016;3.720;2023-02-26T18:36:30;7.00;90.00
20977;DHT22;10647;51.016;3.720;2023-02-26T18:39:12;6.90;90.00
20977;DHT22;10647;51.016;3.720;2023-02-26T18:41:46;6.90;90.10
20977;DHT22;10647;51.016;3.720;2023-02-26T18:44:14;6.80;90.30
20977;DHT22;10647;51.016;3.720;2023-02-26T18:46:42;6.80;90.50
20977;DHT22;10647;51.016;3.720;2023-02-26T18:49:23;6.80;90.60
20977;DHT22;10647;51.016;3.720;2023-02-26T18:51:53;6.80;90.80
20977;DHT22;10647;51.016;3.720;2023-02-26T18:54:25;6.70;90.90
20977;DHT22;10647;51.016;3.720;2023-02-26T18:56:53;6.70;91.00
20977;DHT22;10647;51.016;3.720;2023-02-26T18:59:20;6.70;91.20
20977;DHT22;10647;51.016;3.720;2023-02-26T19:01:48;6.60;91.40
20977;DHT22;10647;51.016;3.720;2023-02-26T19:04:15;6.60;91.40
20977;DHT22;10647;51.016;3.720;2023-02-26T19:06:43;6.60;91.40
20977;DHT22;10647;51.016;3.720;2023-02-26T19:09:10;6.60;91.50
20977;DHT22;10647;51.016;3.720;2023-02-26T19:11:39;6.60;91.60
20977;DHT22;10647;51.016;3.720;2023-02-26T19:14:08;6.50;91.70
20977;DHT22;10647;51.016;3.720;2023-02-26T19:16:36;6.50;91.80
20977;DHT22;10647;51.016;3.720;2023-02-26T19:19:05;6.50;92.00
20977;DHT22;10647;51.016;3.720;2023-02-26T19:21:36;6.50;92.10
20977;DHT22;10647;51.016;3.720;2023-02-26T19:24:08;6.40;92.50
20977;DHT22;10647;51.016;3.720;2023-02-26T19:26:37;6.40;92.30
20977;DHT22;10647;51.016;3.720;2023-02-26T19:29:06;6.40;92.30
20977;DHT22;10647;51.016;3.720;2023-02-26T19:31:34;6.30;92.40
20977;DHT22;10647;51.016;3.720;2023-02-26T19:34:04;6.30;92.50
20977;DHT22;10647;51.016;3.720;2023-02-26T19:36:31;6.30;92.60
20977;DHT22;10647;51.016;3.720;2023-02-26T19:39:01;6.30;92.70
20977;DHT22;10647;51.016;3.720;2023-02-26T19:41:29;6.30;92.80
20977;DHT22;10647;51.016;3.720;2023-02-26T19:43:57;6.20;92.90
20977;DHT22;10647;51.016;3.720;2023-02-26T19:46:27;6.20;93.00
20977;DHT22;10647;51.016;3.720;2023-02-26T19:48:54;6.20;93.10
20977;DHT22;10647;51.016;3.720;2023-02-26T19:51:22;6.20;93.20
20977;DHT22;10647;51.016;3.720;2023-02-26T19:53:49;6.20;93.30
20977;DHT22;10647;51.016;3.720;2023-02-26T19:56:23;6.20;93.40
20977;DHT22;10647;51.016;3.720;2023-02-26T19:58:50;6.10;93.50
20977;DHT22;10647;51.016;3.720;2023-02-26T20:01:18;6.10;93.50
20977;DHT22;10647;51.016;3.720;2023-02-26T20:03:46;6.10;93.60
20977;DHT22;10647;51.016;3.720;2023-02-26T20:06:14;6.10;93.70
20977;DHT22;10647;51.016;3.720;2023-02-26T20:08:42;6.00;93.70
20977;DHT22;10647;51.016;3.720;2023-02-26T20:11:10;6.00;93.90